.
WxDataArchive / Data Records for 2015-10-12
2015-10-11 October 2015 2015-10-13

Data Records for Monday, 12 October 2015

Time	Temp	Chill	HIndex	Humid	Dewpt	 Wind 	HiWind	WindDir	Rain 	Barom
-----	----	-----	------	-----	-----	------	------	-------	-----	-----
00:00	61.5	61.5	61.5	56	45.7	0	1	270	0.00	29.741 
00:05	61.3	61.3	61.3	56	45.5	0	1	270	0.00	29.741 
00:10	61.3	61.3	61.3	57	45.9	0	1	270	0.00	29.741 
00:15	61.2	61.2	61.2	57	45.8	0	0	---	0.00	29.732 
00:20	61.2	61.2	61.2	57	45.8	0	1	270	0.00	29.732 
00:25	61.0	61.0	61.0	58	46.1	0	1	270	0.00	29.732 
00:30	61.0	61.0	61.0	58	46.1	0	1	270	0.00	29.733 
00:35	60.9	60.9	60.9	58	46.0	0	1	270	0.00	29.733 
00:40	60.9	60.9	60.9	58	46.0	0	1	270	0.00	29.733 
00:45	60.7	60.7	60.7	59	46.3	0	0	---	0.00	29.734 
00:50	60.4	60.4	60.4	59	46.0	0	1	270	0.00	29.734 
00:55	60.1	60.1	60.1	60	46.2	0	1	270	0.00	29.734 
01:00	59.9	59.9	59.9	60	46.0	0	1	270	0.00	29.731 
01:05	59.8	59.8	59.8	60	45.9	0	0	---	0.00	29.731 
01:10	59.8	59.8	59.8	60	45.9	0	0	---	0.00	29.731 
01:15	59.8	59.8	59.8	61	46.3	0	2	270	0.00	29.731 
01:20	59.6	59.6	59.6	61	46.1	0	0	---	0.00	29.731 
01:25	59.6	59.6	59.6	61	46.1	0	1	270	0.00	29.731 
01:30	59.3	59.3	59.3	61	45.8	0	0	---	0.00	29.729 
01:35	59.0	59.0	59.0	62	46.0	0	0	---	0.00	29.729 
01:40	58.9	58.9	58.9	62	45.9	0	1	270	0.00	29.729 
01:45	58.6	58.6	58.6	63	46.0	0	0	---	0.00	29.727 
01:50	58.3	58.3	58.3	63	45.8	0	0	---	0.00	29.727 
01:55	58.0	58.0	58.0	64	45.9	0	0	---	0.00	29.727 
02:00	57.8	57.8	57.8	65	46.1	0	0	---	0.00	29.729 
02:05	57.5	57.5	57.5	65	45.8	0	0	---	0.00	29.729 
02:10	57.2	57.2	57.2	66	45.9	0	0	---	0.00	29.729 
02:15	57.0	57.0	57.0	66	45.8	0	1	270	0.00	29.721 
02:20	56.7	56.7	56.7	67	45.9	0	0	---	0.00	29.721 
02:25	56.6	56.6	56.6	67	45.8	0	0	---	0.00	29.721 
02:30	56.3	56.3	56.3	68	45.9	0	0	---	0.00	29.714 
02:35	56.2	56.2	56.2	68	45.8	0	0	---	0.00	29.714 
02:40	56.0	56.0	56.0	69	46.0	0	0	---	0.00	29.714 
02:45	55.9	55.9	55.9	69	45.9	0	0	---	0.00	29.715 
02:50	55.7	55.7	55.7	69	45.7	0	0	---	0.00	29.715 
02:55	55.7	55.7	55.7	69	45.7	0	0	---	0.00	29.715 
03:00	55.6	55.6	55.6	70	46.0	0	0	---	0.00	29.713 
03:05	55.4	55.4	55.4	70	45.8	0	0	---	0.00	29.713 
03:10	55.3	55.3	55.3	70	45.7	0	0	---	0.00	29.713 
03:15	55.1	55.1	55.1	71	45.9	0	0	---	0.00	29.706 
03:20	55.0	55.0	55.0	72	46.1	0	0	---	0.00	29.706 
03:25	54.8	54.8	54.8	72	45.9	0	0	---	0.00	29.706 
03:30	54.7	54.7	54.7	73	46.2	0	0	---	0.00	29.701 
03:35	54.5	54.5	54.5	73	46.0	0	0	---	0.00	29.701 
03:40	54.4	54.4	54.4	73	45.9	0	0	---	0.00	29.701 
03:45	54.1	54.1	54.1	73	45.6	0	0	---	0.00	29.695 
03:50	54.1	54.1	54.1	74	46.0	0	0	---	0.00	29.695 
03:55	53.9	53.9	53.9	74	45.8	0	0	---	0.00	29.695 
04:00	53.9	53.9	53.9	74	45.8	0	0	---	0.00	29.684 
04:05	53.8	53.8	53.8	74	45.7	0	1	270	0.00	29.684 
04:10	53.8	53.8	53.8	74	45.7	0	0	---	0.00	29.684 
04:15	53.8	53.8	53.8	74	45.7	0	0	---	0.00	29.674 
04:20	53.6	53.6	53.6	75	45.9	0	0	---	0.00	29.674 
04:25	53.6	53.6	53.6	75	45.9	0	0	---	0.00	29.674 
04:30	53.8	53.8	53.8	75	46.1	0	1	270	0.00	29.669 
04:35	53.8	53.8	53.8	75	46.1	0	1	270	0.00	29.669 
04:40	53.8	53.8	53.8	75	46.1	0	0	---	0.00	29.669 
04:45	53.8	53.8	53.8	74	45.7	0	0	---	0.00	29.668 
04:50	53.8	53.8	53.8	75	46.1	0	0	---	0.00	29.668 
04:55	53.8	53.8	53.8	74	45.7	0	1	270	0.00	29.668 
05:00	53.8	53.8	53.8	75	46.1	0	0	---	0.00	29.661 
05:05	53.6	53.6	53.6	75	45.9	0	0	---	0.00	29.661 
05:10	53.6	53.6	53.6	75	45.9	0	0	---	0.00	29.661 
05:15	53.6	53.6	53.6	75	45.9	0	0	---	0.00	29.655 
05:20	53.5	53.5	53.5	75	45.8	0	0	---	0.00	29.655 
05:25	53.5	53.5	53.5	75	45.8	0	0	---	0.00	29.655 
05:30	53.3	53.3	53.3	76	45.9	0	0	---	0.00	29.656 
05:35	53.3	53.3	53.3	76	45.9	0	1	270	0.00	29.656 
05:40	53.2	53.2	53.2	76	45.8	0	1	270	0.00	29.656 
05:45	53.2	53.2	53.2	77	46.2	0	0	---	0.00	29.649 
05:50	53.3	53.3	53.3	77	46.3	0	1	270	0.00	29.649 
05:55	53.3	53.3	53.3	77	46.3	0	0	---	0.00	29.649 
06:00	53.3	53.3	53.3	77	46.3	0	0	---	0.00	29.643 
06:05	53.3	53.3	53.3	77	46.3	0	0	---	0.00	29.643 
06:10	53.5	53.5	53.5	77	46.5	0	0	---	0.00	29.643 
06:15	53.5	53.5	53.5	77	46.5	0	0	---	0.00	29.641 
06:20	53.5	53.5	53.5	77	46.5	0	0	---	0.00	29.641 
06:25	53.6	53.6	53.6	77	46.6	0	0	---	0.00	29.641 
06:30	53.6	53.6	53.6	77	46.6	0	0	---	0.00	29.639 
06:35	53.6	53.6	53.6	77	46.6	0	0	---	0.00	29.639 
06:40	53.6	53.6	53.6	77	46.6	0	0	---	0.00	29.639 
06:45	53.8	53.8	53.8	77	46.8	0	0	---	0.00	29.636 
06:50	53.8	53.8	53.8	77	46.8	0	0	---	0.00	29.636 
06:55	53.8	53.8	53.8	77	46.8	0	0	---	0.00	29.636 
07:00	53.9	53.9	53.9	77	46.9	0	0	---	0.00	29.639 
07:05	53.9	53.9	53.9	77	46.9	0	0	---	0.00	29.639 
07:10	53.9	53.9	53.9	77	46.9	0	0	---	0.00	29.639 
07:15	53.9	53.9	53.9	77	46.9	0	0	---	0.00	29.642 
07:20	53.9	53.9	53.9	78	47.2	0	0	---	0.00	29.642 
07:25	53.9	53.9	53.9	78	47.2	0	0	---	0.00	29.642 
07:30	53.9	53.9	53.9	78	47.2	0	0	---	0.00	29.642 
07:35	54.1	54.1	54.1	78	47.4	0	1	270	0.00	29.642 
07:40	54.1	54.1	54.1	77	47.0	0	0	---	0.00	29.642 
07:45	54.1	54.1	54.1	77	47.0	0	1	270	0.00	29.629 
07:50	54.1	54.1	54.1	77	47.0	0	0	---	0.00	29.629 
07:55	54.1	54.1	54.1	77	47.0	0	0	---	0.00	29.629 
08:00	54.1	54.1	54.1	77	47.0	0	1	270	0.00	29.622 
08:05	54.2	54.2	54.2	77	47.1	0	1	270	0.00	29.622 
08:10	54.5	54.5	54.5	77	47.4	0	2	270	0.00	29.622 
08:15	54.7	54.7	54.7	76	47.3	0	1	270	0.00	29.608 
08:20	55.0	55.0	55.0	76	47.6	0	1	270	0.00	29.608 
08:25	55.3	55.3	55.3	75	47.5	0	1	270	0.00	29.608 
08:30	55.6	55.6	55.6	75	47.8	0	1	270	0.00	29.596 
08:35	55.7	55.7	55.7	74	47.5	0	2	292	0.00	29.596 
08:40	56.0	56.0	56.0	74	47.8	0	1	292	0.00	29.596 
08:45	56.3	56.3	56.3	73	47.8	0	3	45	0.00	29.587 
08:50	56.6	56.6	56.6	73	48.0	0	2	45	0.00	29.587 
08:55	56.9	56.9	56.9	72	48.0	0	2	90	0.00	29.587 
09:00	57.2	57.2	57.2	72	48.3	0	2	45	0.00	29.589 
09:05	57.5	57.5	57.5	72	48.5	0	1	45	0.00	29.589 
09:10	57.8	57.8	57.8	71	48.5	1	5	45	0.00	29.589 
09:15	58.3	58.3	58.3	70	48.6	0	5	112	0.00	29.589 
09:20	58.6	58.6	58.6	70	48.8	0	1	112	0.00	29.589 
09:25	58.9	58.9	58.9	69	48.7	0	3	45	0.00	29.589 
09:30	59.3	59.3	59.3	68	48.7	0	3	270	0.00	29.590 
09:35	59.8	59.8	59.8	67	48.8	0	2	270	0.00	29.590 
09:40	60.2	60.2	60.2	67	49.2	0	1	270	0.00	29.590 
09:45	60.7	60.7	60.7	65	48.9	0	2	270	0.00	29.592 
09:50	61.0	61.0	61.0	65	49.1	0	2	270	0.00	29.592 
09:55	61.5	61.5	61.5	65	49.6	0	3	112	0.00	29.592 
10:00	61.8	61.8	61.8	63	49.1	0	2	202	0.00	29.590 
10:05	62.3	62.3	62.3	62	49.1	1	3	315	0.00	29.590 
10:10	62.9	62.9	62.9	62	49.7	0	2	292	0.00	29.590 
10:15	63.4	63.4	63.4	61	49.7	1	4	292	0.00	29.586 
10:20	64.2	64.2	64.2	60	50.0	0	1	315	0.00	29.586 
10:25	64.8	64.8	64.8	58	49.7	0	4	248	0.00	29.586 
10:30	65.3	65.3	65.3	58	50.1	0	2	248	0.00	29.575 
10:35	65.8	65.8	65.8	57	50.1	1	4	248	0.00	29.575 
10:40	66.3	66.3	66.3	56	50.1	1	3	225	0.00	29.575 
10:45	66.9	66.9	66.9	56	50.7	1	6	270	0.00	29.572 
10:50	67.4	67.4	67.4	56	51.1	0	4	270	0.00	29.572 
10:55	67.8	67.8	67.8	55	51.0	1	3	270	0.00	29.572 
11:00	68.1	68.1	68.1	55	51.3	0	3	292	0.00	29.562 
11:05	68.8	68.8	68.8	54	51.5	0	2	292	0.00	29.562 
11:10	69.1	69.1	69.1	53	51.2	0	2	292	0.00	29.562 
11:15	69.6	69.6	69.6	53	51.7	1	4	270	0.00	29.553 
11:20	70.1	70.1	70.1	53	52.2	0	4	292	0.00	29.553 
11:25	70.4	70.4	70.4	53	52.4	0	2	292	0.00	29.553 
11:30	71.1	71.1	71.1	52	52.6	1	3	0	0.00	29.542 
11:35	71.5	71.5	71.5	51	52.4	1	3	270	0.00	29.542 
11:40	71.6	71.6	71.6	51	52.5	0	5	270	0.00	29.542 
11:45	72.1	72.1	72.1	51	53.0	0	3	270	0.00	29.535 
11:50	72.3	72.3	72.3	50	52.6	1	4	270	0.00	29.535 
11:55	72.5	72.5	72.5	50	52.8	1	2	248	0.00	29.535 
12:00	72.7	72.7	72.7	51	53.5	1	4	45	0.00	29.533 
12:05	72.8	72.8	72.8	50	53.1	1	4	248	0.00	29.533 
12:10	73.2	73.2	73.2	50	53.4	1	5	225	0.00	29.533 
12:15	73.3	73.3	73.3	50	53.5	1	3	270	0.00	29.528 
12:20	73.3	73.3	73.3	49	53.0	1	5	270	0.00	29.528 
12:25	73.5	73.5	73.5	50	53.7	1	3	270	0.00	29.528 
12:30	73.7	73.7	73.7	50	53.9	1	5	270	0.00	29.527 
12:35	73.9	73.9	73.9	50	54.1	1	3	270	0.00	29.527 
12:40	74.2	74.2	74.2	50	54.3	0	4	248	0.00	29.527 
12:45	74.7	74.7	74.7	49	54.3	0	3	248	0.00	29.522 
12:50	74.7	74.7	74.7	48	53.7	1	4	270	0.00	29.522 
12:55	74.6	74.6	74.6	49	54.2	1	6	248	0.00	29.522 
13:00	74.4	74.4	74.4	50	54.5	1	5	248	0.00	29.520 
13:05	74.6	74.6	74.6	50	54.7	1	2	248	0.00	29.520 
13:10	74.7	74.7	74.7	49	54.3	1	2	248	0.00	29.520 
13:15	74.7	74.7	74.7	50	54.8	1	4	292	0.00	29.521 
13:20	74.9	74.9	74.9	50	55.0	1	4	225	0.00	29.521 
13:25	75.3	75.3	77.7	50	55.4	1	4	315	0.00	29.521 
13:30	75.3	75.3	77.7	49	54.8	1	3	292	0.00	29.516 
13:35	75.3	75.3	77.7	50	55.4	1	3	292	0.00	29.516 
13:40	75.3	75.3	77.7	49	54.8	1	4	248	0.00	29.516 
13:45	75.3	75.3	77.7	50	55.4	0	3	112	0.00	29.506 
13:50	75.6	75.6	77.9	49	55.1	1	5	292	0.00	29.506 
13:55	76.0	76.0	78.0	48	54.9	1	4	292	0.00	29.506 
14:00	76.3	76.3	78.2	49	55.7	1	3	292	0.00	29.502 
14:05	76.3	76.3	78.2	49	55.7	1	7	292	0.00	29.502 
14:10	76.1	76.1	78.1	49	55.5	1	5	248	0.00	29.502 
14:15	75.8	75.8	78.0	50	55.8	1	3	248	0.00	29.502 
14:20	75.6	75.6	77.9	50	55.6	1	3	248	0.00	29.502 
14:25	75.3	75.3	77.7	50	55.4	2	6	270	0.00	29.502 
14:30	75.1	75.1	77.7	51	55.7	2	5	292	0.00	29.501 
14:35	74.9	74.9	74.9	52	56.1	1	5	270	0.00	29.501 
14:40	74.9	74.9	74.9	52	56.1	1	5	270	0.00	29.501 
14:45	74.9	74.9	74.9	52	56.1	0	2	270	0.00	29.494 
14:50	74.7	74.7	74.7	52	55.9	1	5	225	0.00	29.494 
14:55	74.7	74.7	74.7	52	55.9	0	3	248	0.00	29.494 
15:00	74.6	74.6	74.6	53	56.3	1	3	270	0.00	29.491 
15:05	74.4	74.4	74.4	54	56.7	1	5	270	0.00	29.491 
15:10	74.4	74.4	74.4	54	56.7	1	3	270	0.00	29.491 
15:15	74.4	74.4	74.4	54	56.7	1	5	270	0.00	29.491 
15:20	74.2	74.2	74.2	54	56.5	1	4	270	0.00	29.491 
15:25	74.0	74.0	74.0	54	56.3	1	6	270	0.00	29.491 
15:30	73.9	73.9	73.9	54	56.2	1	5	270	0.00	29.491 
15:35	73.7	73.7	73.7	54	56.0	1	3	270	0.00	29.491 
15:40	73.7	73.7	73.7	55	56.5	1	4	270	0.00	29.491 
15:45	74.2	74.2	74.2	54	56.5	0	3	202	0.00	29.480 
15:50	74.4	74.4	74.4	54	56.7	1	4	248	0.00	29.480 
15:55	74.4	74.4	74.4	54	56.7	0	2	248	0.00	29.480 
16:00	74.6	74.6	74.6	54	56.8	0	1	248	0.00	29.475 
16:05	74.6	74.6	74.6	54	56.8	0	2	248	0.00	29.475 
16:10	74.6	74.6	74.6	54	56.8	0	2	248	0.00	29.475 
16:15	74.4	74.4	74.4	55	57.2	0	2	248	0.00	29.476 
16:20	74.4	74.4	74.4	54	56.7	0	1	248	0.00	29.476 
16:25	74.4	74.4	74.4	54	56.7	0	1	248	0.00	29.476 
16:30	74.2	74.2	74.2	54	56.5	0	2	248	0.00	29.479 
16:35	74.0	74.0	74.0	56	57.3	0	3	225	0.00	29.479 
16:40	74.0	74.0	74.0	54	56.3	1	4	270	0.00	29.479 
16:45	73.9	73.9	73.9	54	56.2	1	5	315	0.00	29.475 
16:50	73.9	73.9	73.9	54	56.2	1	3	270	0.00	29.475 
16:55	74.0	74.0	74.0	55	56.8	0	1	270	0.00	29.475 
17:00	73.9	73.9	73.9	54	56.2	1	3	270	0.00	29.471 
17:05	73.7	73.7	73.7	56	57.0	0	1	270	0.00	29.471 
17:10	73.5	73.5	73.5	55	56.3	0	4	315	0.00	29.471 
17:15	73.3	73.3	73.3	55	56.1	0	3	292	0.00	29.471 
17:20	73.3	73.3	73.3	56	56.6	0	2	315	0.00	29.471 
17:25	73.2	73.2	73.2	55	56.0	0	2	270	0.00	29.471 
17:30	73.3	73.3	73.3	55	56.1	1	4	248	0.00	29.460 
17:35	73.3	73.3	73.3	56	56.6	0	2	248	0.00	29.460 
17:40	73.3	73.3	73.3	56	56.6	0	3	248	0.00	29.460 
17:45	73.2	73.2	73.2	55	56.0	0	2	248	0.00	29.447 
17:50	73.2	73.2	73.2	55	56.0	0	2	248	0.00	29.447 
17:55	73.2	73.2	73.2	56	56.5	0	3	248	0.00	29.447 
18:00	73.2	73.2	73.2	55	56.0	0	2	315	0.00	29.454 
18:05	73.2	73.2	73.2	55	56.0	0	1	270	0.00	29.454 
18:10	73.2	73.2	73.2	55	56.0	0	2	270	0.00	29.454 
18:15	73.2	73.2	73.2	55	56.0	0	1	270	0.00	29.462 
18:20	73.0	73.0	73.0	56	56.4	0	1	270	0.00	29.462 
18:25	72.8	72.8	72.8	56	56.2	0	1	270	0.00	29.462 
18:30	72.7	72.7	72.7	56	56.1	0	2	270	0.00	29.463 
18:35	72.7	72.7	72.7	56	56.1	0	3	270	0.00	29.463 
18:40	72.5	72.5	72.5	56	55.9	0	1	270	0.00	29.463 
18:45	72.3	72.3	72.3	56	55.7	0	3	270	0.00	29.469 
18:50	72.3	72.3	72.3	54	54.7	1	4	270	0.00	29.469 
18:55	72.3	72.3	72.3	53	54.2	0	2	270	0.00	29.469 
19:00	72.5	72.5	72.5	53	54.4	1	6	292	0.00	29.464 
19:05	72.5	72.5	72.5	53	54.4	0	4	292	0.00	29.464 
19:10	72.5	72.5	72.5	53	54.4	1	5	270	0.00	29.464 
19:15	72.3	72.3	72.3	52	53.7	1	4	270	0.00	29.474 
19:20	72.1	72.1	72.1	50	52.4	1	4	270	0.00	29.474 
19:25	72.0	72.0	72.0	49	51.8	1	4	270	0.00	29.474 
19:30	71.6	71.6	71.6	46	49.7	2	4	270	0.00	29.484 
19:35	71.3	71.3	71.3	43	47.6	3	7	270	0.00	29.484 
19:40	71.1	71.1	71.1	43	47.5	0	3	270	0.00	29.484 
19:45	70.8	70.8	70.8	41	45.9	1	7	270	0.00	29.485 
19:50	70.4	70.4	70.4	43	46.8	0	2	270	0.00	29.485 
19:55	70.1	70.1	70.1	42	45.9	1	4	270	0.00	29.485 
20:00	69.8	69.8	69.8	42	45.7	1	3	270	0.00	29.484 
20:05	69.4	69.4	69.4	43	45.9	0	2	270	0.00	29.484 
20:10	69.1	69.1	69.1	42	45.0	0	4	270	0.00	29.484 
20:15	68.9	68.9	68.9	42	44.9	0	1	270	0.00	29.493 
20:20	68.6	68.6	68.6	42	44.6	1	2	270	0.00	29.493 
20:25	68.4	68.4	68.4	43	45.0	0	1	270	0.00	29.493 
20:30	68.1	68.1	68.1	43	44.7	0	1	270	0.00	29.494 
20:35	67.9	67.9	67.9	43	44.6	0	1	270	0.00	29.494 
20:40	67.6	67.6	67.6	43	44.3	0	1	270	0.00	29.494 
20:45	67.3	67.3	67.3	44	44.6	0	1	270	0.00	29.493 
20:50	67.1	67.1	67.1	45	45.0	0	0	---	0.00	29.493 
20:55	66.8	66.8	66.8	46	45.3	0	0	---	0.00	29.493 
21:00	66.4	66.4	66.4	45	44.4	0	1	270	0.00	29.494 
21:05	66.1	66.1	66.1	45	44.1	0	1	270	0.00	29.494 
21:10	66.1	66.1	66.1	45	44.1	0	1	270	0.00	29.494 
21:15	66.0	66.0	66.0	45	44.0	0	1	270	0.00	29.487 
21:20	65.8	65.8	65.8	45	43.9	0	1	270	0.00	29.487 
21:25	65.6	65.6	65.6	45	43.7	0	1	270	0.00	29.487 
21:30	65.5	65.5	65.5	44	43.0	0	3	248	0.00	29.483 
21:35	65.5	65.5	65.5	44	43.0	0	1	248	0.00	29.483 
21:40	65.3	65.3	65.3	44	42.8	0	1	248	0.00	29.483 
21:45	65.2	65.2	65.2	45	43.3	0	1	248	0.00	29.483 
21:50	65.0	65.0	65.0	45	43.1	0	0	---	0.00	29.483 
21:55	64.8	64.8	64.8	44	42.4	0	1	248	0.00	29.483 
22:00	64.7	64.7	64.7	45	42.9	0	1	248	0.00	29.482 
22:05	64.7	64.7	64.7	44	42.3	0	1	248	0.00	29.482 
22:10	64.7	64.7	64.7	44	42.3	0	1	248	0.00	29.482 
22:15	64.7	64.7	64.7	44	42.3	0	4	248	0.00	29.484 
22:20	64.7	64.7	64.7	43	41.7	0	2	248	0.00	29.484 
22:25	64.8	64.8	64.8	43	41.8	0	3	248	0.00	29.484 
22:30	65.0	65.0	65.0	43	42.0	0	2	248	0.00	29.489 
22:35	64.8	64.8	64.8	43	41.8	0	1	248	0.00	29.489 
22:40	64.8	64.8	64.8	43	41.8	0	3	248	0.00	29.489 
22:45	64.7	64.7	64.7	43	41.7	0	2	248	0.00	29.491 
22:50	64.5	64.5	64.5	43	41.5	0	3	248	0.00	29.491 
22:55	64.3	64.3	64.3	43	41.3	0	2	248	0.00	29.491 
23:00	64.5	64.5	64.5	43	41.5	1	6	248	0.00	29.494 
23:05	64.5	64.5	64.5	43	41.5	1	6	270	0.00	29.494 
23:10	64.5	64.5	64.5	43	41.5	1	5	270	0.00	29.494 
23:15	64.3	64.3	64.3	44	41.9	0	5	270	0.00	29.497 
23:20	64.2	64.2	64.2	44	41.8	1	5	270	0.00	29.497 
23:25	64.0	64.0	64.0	44	41.6	1	4	270	0.00	29.497 
23:30	63.7	63.7	63.7	44	41.4	1	7	270	0.00	29.497 
23:35	63.5	63.5	63.5	44	41.2	1	4	270	0.00	29.497 
23:40	63.4	63.4	63.4	45	41.7	0	2	270	0.00	29.497 
23:45	63.2	63.2	63.2	45	41.5	0	2	270	0.00	29.498 
23:50	62.9	62.9	62.9	45	41.2	0	2	270	0.00	29.498 
23:55	62.7	62.7	62.7	46	41.6	0	3	270	0.00	29.498 

CoCoRaHS
IN-AL-39
A2 Web Hosting
Creative Commons License
GoDaddy
search engine by freefind advanced

loaded 2018-11-19 19:22:50 • last modified 2010-11-18 10:43:29
Privacy PolicyDisclaimer
• wx.awcolley.com is powered by PmWiki v.2002016 •
• all content (unless otherwise noted) © 2018 A W Colley